Time;durP1;ratioP1;P1;durP2;ratioP2;P2;SDS_P1;SDS_P2;PMS_P1;PMS_P2;Temp;Humidity;BMP_temperature;BMP_pressure;BME280_temperature;BME280_humidity;BME280_pressure;Samples;Min_cycle;Max_cycle;Signal;HPM_P1;HPM_P2
2024/04/12 00:01:49;;;;;;;9.50;4.57;;;;;;;11.06;100.00;102022.75;7370806;19;20031;-76
2024/04/12 00:04:17;;;;;;;10.77;4.43;;;;;;;10.89;100.00;101997.50;7374647;19;20325;-79
2024/04/12 00:06:49;;;;;;;7.80;4.30;;;;;;;10.97;100.00;102017.66;7399351;19;20017;-80
2024/04/12 00:09:18;;;;;;;8.02;4.18;;;;;;;10.98;100.00;102025.59;7399839;19;20042;-77
2024/04/12 00:11:45;;;;;;;8.55;4.00;;;;;;;10.17;100.00;101883.44;7395479;19;20120;-79
2024/04/12 00:14:13;;;;;;;10.25;4.68;;;;;;;10.90;100.00;102011.63;7396388;19;20011;-79
2024/04/12 00:16:43;;;;;;;12.77;5.07;;;;;;;10.78;100.00;101990.69;7399092;19;20047;-78
2024/04/12 00:19:18;;;;;;;10.75;4.45;;;;;;;10.82;100.00;102014.47;7399391;19;20343;-79
2024/04/12 00:21:48;;;;;;;8.77;4.55;;;;;;;10.82;100.00;102024.19;7394764;19;20017;-78
2024/04/12 00:24:15;;;;;;;7.95;4.60;;;;;;;10.44;100.00;101966.72;7397388;19;20048;-81
2024/04/12 00:26:43;;;;;;;13.38;5.20;;;;;;;10.75;100.00;102017.25;7399878;19;20013;-79
2024/04/12 00:29:25;;;;;;;9.60;4.63;;;;;;;10.60;100.00;101994.63;7415821;19;20412;-76
2024/04/12 00:31:55;;;;;;;11.38;5.55;;;;;;;10.39;100.00;101956.22;7399400;19;20007;-78
2024/04/12 00:34:26;;;;;;;8.00;4.55;;;;;;;10.57;100.00;101992.03;7395966;19;20047;-78
2024/04/12 00:37:06;;;;;;;12.27;4.60;;;;;;;10.72;100.00;102015.53;7395876;19;20010;-78
2024/04/12 00:39:38;;;;;;;7.63;4.80;;;;;;;10.69;100.00;102013.00;7393858;19;20011;-80
2024/04/12 00:42:07;;;;;;;14.57;4.50;;;;;;;10.47;100.00;101994.03;7392855;19;20011;-81
2024/04/12 00:44:38;;;;;;;11.90;5.03;;;;;;;10.46;100.00;102017.88;7394954;19;20007;-78
2024/04/12 00:47:10;;;;;;;9.43;4.75;;;;;;;10.18;100.00;101972.53;7396141;19;20492;-77
2024/04/12 00:49:49;;;;;;;11.35;4.82;;;;;;;10.42;100.00;102030.31;7378730;19;20377;-80
2024/04/12 00:52:22;;;;;;;13.85;5.28;;;;;;;10.03;100.00;101959.63;7396398;19;20019;-78
2024/04/12 00:55:03;;;;;;;12.73;5.05;;;;;;;10.32;100.00;102002.28;7397134;19;20022;-79
2024/04/12 00:57:35;;;;;;;11.80;4.68;;;;;;;10.38;100.00;102017.19;7398787;19;20471;-79
2024/04/12 01:00:10;;;;;;;11.57;5.25;;;;;;;10.16;100.00;101984.94;7397828;19;20021;-80
2024/04/12 01:02:43;;;;;;;11.20;4.95;;;;;;;10.05;100.00;101971.91;7394666;19;20014;-81
2024/04/12 01:05:14;;;;;;;13.52;5.63;;;;;;;10.20;100.00;101999.88;7396162;19;20014;-79
2024/04/12 01:07:48;;;;;;;10.98;4.90;;;;;;;9.98;100.00;101959.69;7406928;19;20013;-78
2024/04/12 01:10:24;;;;;;;9.98;5.10;;;;;;;10.17;100.00;102003.44;7407320;19;20023;-78
2024/04/12 01:12:55;;;;;;;13.10;5.53;;;;;;;10.14;100.00;101992.91;7404539;19;20026;-79
2024/04/12 01:15:28;;;;;;;13.00;4.60;;;;;;;10.15;100.00;102010.53;7401422;19;20010;-78
2024/04/12 01:17:56;;;;;;;14.27;5.40;;;;;;;9.99;100.00;101987.91;7409041;19;20005;-81
2024/04/12 01:20:25;;;;;;;14.00;5.45;;;;;;;9.92;100.00;101983.63;7416816;19;20010;-77
2024/04/12 01:22:57;;;;;;;11.13;4.75;;;;;;;10.13;100.00;102011.47;7415815;19;20014;-77
2024/04/12 01:25:28;;;;;;;8.88;4.85;;;;;;;10.12;100.00;102002.63;7419405;19;20011;-78
2024/04/12 01:27:55;;;;;;;14.48;5.35;;;;;;;9.98;100.00;101980.88;7415562;19;21762;-78
2024/04/12 01:30:24;;;;;;;11.32;5.22;;;;;;;10.00;100.00;101994.06;7420263;19;20014;-77
2024/04/12 01:32:50;;;;;;;8.85;4.60;;;;;;;9.74;100.00;101949.59;7409368;19;20011;-77
2024/04/12 01:35:22;;;;;;;10.82;5.05;;;;;;;9.92;100.00;101991.56;7418532;19;20042;-77
2024/04/12 01:37:51;;;;;;;11.57;4.70;;;;;;;9.97;100.00;101989.69;7416140;19;20039;-78
2024/04/12 01:40:18;;;;;;;10.95;4.68;;;;;;;10.01;100.00;101994.03;7416074;19;20006;-77
2024/04/12 01:42:45;;;;;;;7.47;4.60;;;;;;;9.71;100.00;101939.94;7409620;19;20774;-77
2024/04/12 01:45:14;;;;;;;11.15;5.05;;;;;;;10.00;100.00;101984.34;7417056;19;20003;-78
2024/04/12 01:47:45;;;;;;;10.98;5.13;;;;;;;9.65;100.00;101931.22;7414805;19;20014;-78
2024/04/12 01:50:12;;;;;;;11.60;5.60;;;;;;;9.57;100.00;101933.16;7398825;19;20014;-80
2024/04/12 01:52:54;;;;;;;10.65;4.72;;;;;;;9.79;100.00;101974.16;7392192;19;20373;-77
2024/04/12 01:55:22;;;;;;;10.10;5.57;;;;;;;9.70;100.00;101977.00;7394184;19;20490;-79
2024/04/12 01:57:51;;;;;;;8.02;4.70;;;;;;;9.83;100.00;102000.56;7389793;19;20011;-81
2024/04/12 02:00:20;;;;;;;11.40;4.78;;;;;;;9.80;100.00;102005.03;7395828;19;20010;-79
2024/04/12 02:02:54;;;;;;;9.88;4.93;;;;;;;9.78;100.00;101999.75;7392098;19;20349;-80
2024/04/12 02:05:33;;;;;;;7.45;4.47;;;;;;;9.36;100.00;101932.63;7397284;19;20023;-79
2024/04/12 02:08:03;;;;;;;12.57;5.13;;;;;;;9.78;100.00;102002.41;7396864;19;20010;-76
2024/04/12 02:10:30;;;;;;;9.40;5.22;;;;;;;9.80;100.00;101997.97;7396840;19;20015;-78
2024/04/12 02:12:55;;;;;;;8.63;5.20;;;;;;;9.88;100.00;101999.59;7391762;19;20006;-78
2024/04/12 02:15:25;;;;;;;11.50;5.15;;;;;;;9.62;100.00;101973.59;7394383;19;20021;-79
2024/04/12 02:17:57;;;;;;;9.13;5.18;;;;;;;9.78;100.00;102005.03;7372500;19;20018;-80
2024/04/12 02:20:28;;;;;;;12.23;4.90;;;;;;;9.66;100.00;101999.97;7392928;19;20011;-79
2024/04/12 02:22:56;;;;;;;;;;;;;;;9.68;100.00;102018.47;7390659;19;20025;-79
2024/04/12 02:25:23;;;;;;;9.43;4.95;;;;;;;9.62;100.00;102008.84;7392050;19;19918;-79
2024/04/12 02:27:55;;;;;;;7.55;4.72;;;;;;;9.50;100.00;102002.00;7393248;19;20029;-78
2024/04/12 02:30:25;;;;;;;11.13;5.40;;;;;;;9.52;100.00;102011.69;7394246;19;20010;-78
2024/04/12 02:32:52;;;;;;;9.57;4.97;;;;;;;9.47;100.00;102001.19;7390420;19;20010;-79
2024/04/12 02:35:21;;;;;;;11.35;5.25;;;;;;;9.43;100.00;101997.75;7393675;19;20014;-79
2024/04/12 02:37:48;;;;;;;;;;;;;;;9.53;100.00;102021.38;7393801;19;20563;-80
2024/04/12 02:40:18;;;;;;;12.15;6.10;;;;;;;9.41;100.00;102003.97;7395564;19;19915;-80
2024/04/12 02:42:47;;;;;;;10.73;5.10;;;;;;;9.27;100.00;101977.75;7391456;19;20014;-80
2024/04/12 02:45:12;;;;;;;10.63;5.57;;;;;;;9.39;100.00;101988.13;7392544;19;20395;-80
2024/04/12 02:47:41;;;;;;;12.30;5.68;;;;;;;9.53;100.00;102005.50;7393863;19;20011;-81
2024/04/12 02:50:10;;;;;;;12.25;5.57;;;;;;;9.12;100.00;101936.59;7395327;19;20095;-80
2024/04/12 02:52:38;;;;;;;7.93;4.75;;;;;;;9.51;100.00;102005.53;7394642;19;20018;-81
2024/04/12 02:55:12;;;;;;;7.68;5.03;;;;;;;9.27;100.00;101967.19;7393880;19;20021;-79
2024/04/12 02:57:41;;;;;;;10.25;5.40;;;;;;;9.45;100.00;102001.22;7392308;19;20034;-79
2024/04/12 03:00:25;;;;;;;7.90;4.50;;;;;;;8.94;100.00;101906.94;7390708;19;20023;-79
2024/04/12 03:02:53;;;;;;;9.05;4.88;;;;;;;9.43;100.00;101987.16;7387083;19;20018;-77
2024/04/12 03:05:20;;;;;;;9.65;5.25;;;;;;;9.49;100.00;101997.63;7391357;19;20010;-79
2024/04/12 03:07:46;;;;;;;9.02;5.20;;;;;;;9.43;100.00;101986.31;7392474;19;20454;-78
2024/04/12 03:10:18;;;;;;;10.10;4.90;;;;;;;9.50;100.00;101996.72;7390976;19;20505;-78
2024/04/12 03:12:46;;;;;;;10.48;5.07;;;;;;;9.50;100.00;102003.78;7388392;19;20372;-81
2024/04/12 03:15:14;;;;;;;10.43;5.10;;;;;;;9.28;100.00;101955.72;7389219;19;20017;-79
2024/04/12 03:17:43;;;;;;;9.20;5.70;;;;;;;9.39;100.00;101974.91;7389864;19;20017;-82
2024/04/12 03:20:09;;;;;;;9.18;4.55;;;;;;;9.42;100.00;101980.13;7390642;19;20019;-79
2024/04/12 03:22:34;;;;;;;10.27;5.30;;;;;;;9.35;100.00;101965.25;7389157;19;20062;-79
2024/04/12 03:25:00;;;;;;;9.32;4.80;;;;;;;8.43;100.00;101806.50;7385785;19;20010;-81
2024/04/12 03:27:26;;;;;;;9.80;5.47;;;;;;;9.58;100.00;101995.75;7391269;19;20010;-78
2024/04/12 03:29:52;;;;;;;9.85;5.22;;;;;;;9.45;100.00;101980.06;7389534;19;20010;-79
2024/04/12 03:32:19;;;;;;;11.25;5.47;;;;;;;9.43;100.00;101984.53;7390592;19;20033;-79
2024/04/12 03:34:48;;;;;;;9.73;5.10;;;;;;;9.49;100.00;101992.34;7387700;19;20010;-79
2024/04/12 03:40:17;;;;;;;9.65;5.45;;;;;;;9.57;100.00;101996.63;7391810;19;20010;-78
2024/04/12 03:42:43;;;;;;;;;;;;;;;9.54;100.00;101996.69;7389926;19;20026;-78
2024/04/12 03:45:14;;;;;;;12.10;5.25;;;;;;;9.41;100.00;101988.09;7390335;19;19948;-78
2024/04/12 03:47:45;;;;;;;8.13;5.13;;;;;;;9.46;100.00;102010.91;7391945;19;20027;-79
2024/04/12 03:50:13;;;;;;;10.48;5.28;;;;;;;9.40;100.00;101994.28;7391238;19;20010;-79
2024/04/12 03:52:48;;;;;;;8.80;5.10;;;;;;;9.31;100.00;101975.91;7391615;19;20017;-77
2024/04/12 03:55:14;;;;;;;9.15;5.32;;;;;;;9.22;100.00;101971.66;7391500;19;20128;-79
2024/04/12 03:57:44;;;;;;;9.13;4.70;;;;;;;9.21;100.00;101980.47;7391551;19;20003;-79
2024/04/12 04:00:11;;;;;;;9.45;4.85;;;;;;;8.84;100.00;101931.75;7390154;19;20379;-78
2024/04/12 04:02:37;;;;;;;7.22;4.93;;;;;;;9.11;100.00;101979.75;7389917;19;20023;-80
2024/04/12 04:05:16;;;;;;;10.07;5.07;;;;;;;8.81;100.00;101924.75;7385475;19;20033;-79
2024/04/12 04:07:45;;;;;;;13.27;5.88;;;;;;;9.11;100.00;101984.19;7390816;19;20503;-79
2024/04/12 04:10:15;;;;;;;9.10;5.15;;;;;;;8.84;100.00;101935.25;7389513;19;20885;-80
2024/04/12 04:12:45;;;;;;;10.70;5.27;;;;;;;9.02;100.00;101979.00;7390611;19;19999;-79
2024/04/12 04:15:12;;;;;;;11.65;5.28;;;;;;;8.77;100.00;101960.91;7402467;19;20010;-76
2024/04/12 04:17:38;;;;;;;9.02;5.25;;;;;;;8.46;100.00;101914.72;7409312;19;20309;-77
2024/04/12 04:20:10;;;;;;;10.32;5.38;;;;;;;8.88;100.00;102012.69;7396940;19;20014;-79
2024/04/12 04:25:07;;;;;;;12.18;6.13;;;;;;;8.78;100.00;102004.03;7384225;19;20025;-77
2024/04/12 04:27:34;;;;;;;9.15;5.50;;;;;;;8.65;100.00;101969.00;7410478;19;20051;-79
2024/04/12 04:30:01;;;;;;;10.05;5.53;;;;;;;8.69;100.00;101975.09;7409630;19;20014;-78
2024/04/12 04:32:26;;;;;;;10.68;5.25;;;;;;;8.77;100.00;101986.44;7411246;19;20022;-76
2024/04/12 04:35:05;;;;;;;8.70;5.45;;;;;;;8.68;100.00;101970.72;7408815;19;20011;-78
2024/04/12 04:37:34;;;;;;;11.77;5.97;;;;;;;8.69;100.00;101981.25;7409914;19;20544;-79
2024/04/12 04:40:16;;;;;;;12.60;5.85;;;;;;;8.73;100.00;101993.53;7408565;19;20032;-80
2024/04/12 04:42:45;;;;;;;10.05;5.05;;;;;;;8.73;100.00;101990.00;7403246;19;20015;-78
2024/04/12 04:45:18;;;;;;;8.90;5.28;;;;;;;8.61;100.00;101971.72;7404142;19;20017;-80
2024/04/12 04:47:44;;;;;;;9.32;5.32;;;;;;;8.60;100.00;101976.13;7408814;19;20434;-79
2024/04/12 04:50:13;;;;;;;9.07;4.80;;;;;;;8.67;100.00;101988.31;7405171;19;20023;-79
2024/04/12 04:52:39;;;;;;;12.43;5.70;;;;;;;8.42;100.00;101936.75;7406060;19;20030;-81
2024/04/12 04:55:12;;;;;;;10.90;5.63;;;;;;;8.79;100.00;101997.88;7398715;19;20006;-81
2024/04/12 04:57:43;;;;;;;12.27;5.20;;;;;;;8.76;100.00;101984.69;7398284;19;20007;-78
2024/04/12 05:00:22;;;;;;;11.38;5.30;;;;;;;8.85;100.00;101997.75;7396325;19;20014;-80
2024/04/12 05:02:49;;;;;;;13.63;5.43;;;;;;;8.71;100.00;101955.69;7394774;19;20033;-79
2024/04/12 05:05:27;;;;;;;8.15;5.00;;;;;;;8.74;100.00;101957.44;7393491;19;20340;-80
2024/04/12 05:08:05;;;;;;;11.43;5.20;;;;;;;8.55;100.00;101933.03;7395223;19;20026;-79
2024/04/12 05:10:35;;;;;;;13.57;6.10;;;;;;;8.94;100.00;102002.06;7395729;19;20018;-79
2024/04/12 05:13:06;;;;;;;9.88;4.65;;;;;;;8.77;100.00;101966.19;7396569;19;20275;-79
2024/04/12 05:18:12;;;;;;;9.20;5.05;;;;;;;9.01;100.00;101994.00;7399405;19;20014;-79
2024/04/12 05:20:40;;;;;;;12.35;5.13;;;;;;;9.00;100.00;101994.88;7396833;19;20017;-83
2024/04/12 05:23:18;;;;;;;10.13;5.28;;;;;;;8.98;100.00;101993.16;7395194;19;20795;-79
2024/04/12 05:25:46;;;;;;;13.18;5.10;;;;;;;9.18;100.00;102020.16;7392208;19;20006;-79
2024/04/12 05:28:12;;;;;;;8.20;4.70;;;;;;;9.14;100.00;102015.81;7395462;19;20698;-78
2024/04/12 05:30:42;;;;;;;8.23;4.97;;;;;;;9.26;100.00;102034.16;7396055;19;20011;-79
2024/04/12 05:33:11;;;;;;;11.45;5.00;;;;;;;9.19;100.00;102019.28;7395279;19;20014;-77
2024/04/12 05:35:37;;;;;;;11.07;4.97;;;;;;;9.31;100.00;102034.06;7391870;19;20414;-79
2024/04/12 05:38:07;;;;;;;12.57;5.00;;;;;;;9.33;100.00;102030.50;7396140;19;20017;-81
2024/04/12 05:40:39;;;;;;;11.82;4.75;;;;;;;9.17;100.00;101996.41;7394995;19;20034;-78
2024/04/12 05:43:13;;;;;;;11.27;5.15;;;;;;;9.18;100.00;102001.66;7395136;19;20002;-79
2024/04/12 05:45:43;;;;;;;10.18;4.93;;;;;;;9.44;100.00;102039.13;7389637;19;20477;-78
2024/04/12 05:48:14;;;;;;;10.80;4.35;;;;;;;9.48;100.00;102040.84;7394996;19;20344;-79
2024/04/12 05:50:40;;;;;;;9.23;4.45;;;;;;;9.43;100.00;102023.31;7392277;19;20018;-80
2024/04/12 05:53:11;;;;;;;9.80;4.88;;;;;;;9.37;100.00;101997.84;7394524;19;20038;-82
2024/04/12 05:55:44;;;;;;;10.73;4.80;;;;;;;9.49;100.00;102002.91;7388986;19;20021;-80
2024/04/12 05:58:17;;;;;;;7.60;4.35;;;;;;;9.76;100.00;102035.06;7371296;19;20035;-79
2024/04/12 06:00:47;;;;;;;10.65;5.03;;;;;;;9.81;100.00;102035.88;7387322;19;20517;-79
2024/04/12 06:03:14;;;;;;;11.15;4.20;;;;;;;9.71;100.00;102005.19;7393816;19;20010;-79
2024/04/12 06:05:55;;;;;;;9.57;4.22;;;;;;;9.87;100.00;102027.84;7389157;19;20045;-76
2024/04/12 06:08:22;;;;;;;9.90;4.60;;;;;;;9.99;100.00;102026.72;7393356;19;20494;-80
2024/04/12 06:10:50;;;;;;;8.77;4.80;;;;;;;9.99;100.00;102024.09;7390262;19;20471;-78
2024/04/12 06:13:23;;;;;;;11.63;4.68;;;;;;;9.81;100.00;101982.97;7392090;19;20015;-77
2024/04/12 06:15:49;;;;;;;12.05;5.13;;;;;;;9.96;100.00;101998.53;7288114;19;2004629;-79
2024/04/12 06:18:16;;;;;;;14.68;5.10;;;;;;;10.24;100.00;102046.56;7394327;19;20082;-78
2024/04/12 06:20:43;;;;;;;19.55;5.43;;;;;;;10.17;100.00;102029.91;7393027;19;20016;-77
2024/04/12 06:23:11;;;;;;;11.55;5.60;;;;;;;10.31;100.00;102034.09;7394654;19;20026;-78
2024/04/12 06:25:44;;;;;;;9.80;5.38;;;;;;;10.45;100.00;102037.31;7392135;19;21376;-77
2024/04/12 06:28:14;;;;;;;8.63;4.80;;;;;;;10.52;100.00;102025.72;7393051;19;20383;-81
2024/04/12 06:30:48;;;;;;;10.52;5.03;;;;;;;10.72;100.00;102028.78;7393860;19;20010;-78
2024/04/12 06:33:20;;;;;;;8.98;5.03;;;;;;;10.83;100.00;102026.81;7393430;19;20010;-78
2024/04/12 06:35:49;;;;;;;15.75;6.70;;;;;;;11.09;100.00;102036.81;7388796;19;20355;-80
2024/04/12 06:38:23;;;;;;;9.93;5.15;;;;;;;11.40;100.00;102036.97;7394423;19;20017;-78
2024/04/12 06:40:57;;;;;;;11.95;5.40;;;;;;;11.52;100.00;102002.16;7392409;19;20011;-77
2024/04/12 06:43:23;;;;;;;10.73;5.40;;;;;;;11.98;100.00;102029.31;7392691;19;20031;-78
2024/04/12 06:46:00;;;;;;;16.38;6.07;;;;;;;12.20;100.00;102023.38;7388683;19;20006;-80
2024/04/12 06:48:27;;;;;;;11.98;5.70;;;;;;;11.67;100.00;101961.09;7392576;19;20025;-82
2024/04/12 06:50:54;;;;;;;7.75;5.25;;;;;;;12.23;100.00;102043.69;7391763;19;20017;-79
2024/04/12 06:53:23;;;;;;;11.43;6.15;;;;;;;12.37;100.00;102036.19;7393720;19;20034;-80
2024/04/12 06:55:49;;;;;;;10.38;5.53;;;;;;;12.50;100.00;102007.50;7391388;19;20010;-77
2024/04/12 06:58:17;;;;;;;10.30;5.57;;;;;;;12.81;100.00;101988.81;7396534;19;20010;-79
2024/04/12 07:00:46;;;;;;;12.15;5.80;;;;;;;13.30;100.00;102025.41;7391649;19;20014;-78
2024/04/12 07:03:15;;;;;;;14.52;6.03;;;;;;;12.39;100.00;101876.75;7392910;19;20010;-82
2024/04/12 07:05:47;;;;;;;10.67;5.90;;;;;;;13.32;100.00;102007.63;7394338;19;20002;-80
2024/04/12 07:08:16;;;;;;;12.95;5.45;;;;;;;13.92;100.00;102057.06;7398577;19;20003;-81
2024/04/12 07:10:50;;;;;;;8.27;5.03;;;;;;;14.21;100.00;102008.06;7394694;19;20010;-81
2024/04/12 07:13:21;;;;;;;14.50;6.30;;;;;;;14.59;100.00;101980.91;7395109;19;20014;-79
2024/04/12 07:15:50;;;;;;;11.40;6.13;;;;;;;14.60;91.48;101897.31;7364679;19;20011;-80
2024/04/12 07:18:16;;;;;;;8.93;5.47;;;;;;;15.67;84.82;102005.88;7392355;19;20010;-81
2024/04/12 07:20:44;;;;;;;9.70;5.80;;;;;;;16.09;78.21;102029.84;7393404;19;20019;-80
2024/04/12 07:23:17;;;;;;;12.20;6.68;;;;;;;15.87;73.57;101993.47;7395676;19;20022;-80
2024/04/12 07:25:47;;;;;;;14.93;6.70;;;;;;;15.25;76.97;101952.47;7388630;19;20017;-80
2024/04/12 07:28:13;;;;;;;;;;;;;;;15.25;79.73;102027.19;7397765;19;20043;-79
2024/04/12 07:30:44;;;;;;;10.90;5.97;;;;;;;15.29;83.22;102017.22;7394562;19;19971;-79
2024/04/12 07:33:13;;;;;;;13.60;6.72;;;;;;;15.66;78.12;102037.97;7398748;19;20017;-80
2024/04/12 07:35:48;;;;;;;14.02;7.15;;;;;;;15.43;76.00;102009.50;7402730;19;20010;-79
2024/04/12 07:38:14;;;;;;;10.65;6.60;;;;;;;15.35;79.16;102025.00;7414767;19;20029;-79
2024/04/12 07:40:43;;;;;;;11.65;6.57;;;;;;;15.44;80.71;102020.13;7413855;19;20361;-79
2024/04/12 07:43:11;;;;;;;15.93;6.55;;;;;;;15.47;79.05;102005.78;7413732;19;20018;-78
2024/04/12 07:45:40;;;;;;;12.63;6.10;;;;;;;15.98;76.46;102034.81;7396596;19;20014;-77
2024/04/12 07:50:46;;;;;;;13.40;6.38;;;;;;;16.49;70.07;101993.31;7414615;19;20014;-78
2024/04/12 07:53:23;;;;;;;11.23;5.90;;;;;;;16.87;68.36;101964.75;7416638;19;20025;-78
2024/04/12 07:55:58;;;;;;;10.75;5.30;;;;;;;17.85;61.89;102012.50;7400312;19;20030;-80
2024/04/12 07:58:34;;;;;;;10.13;4.63;;;;;;;18.12;60.19;101979.84;7400740;19;20034;-79
2024/04/12 08:01:09;;;;;;;9.18;4.28;;;;;;;18.29;57.81;102017.34;7397106;19;20006;-78
2024/04/12 08:03:40;;;;;;;9.70;4.50;;;;;;;17.71;58.47;101977.53;7394442;19;20015;-78
2024/04/12 08:06:06;;;;;;;10.10;4.20;;;;;;;17.45;61.17;101970.81;7396486;19;20406;-79
2024/04/12 08:08:43;;;;;;;11.05;3.90;;;;;;;17.95;60.76;102009.34;7398437;19;20021;-80
2024/04/12 08:11:32;;;;;;;10.32;4.18;;;;;;;18.31;58.04;102007.41;7400491;19;20029;-78
2024/04/12 08:14:06;;;;;;;9.68;3.78;;;;;;;18.37;56.38;101988.31;7395889;19;20030;-79
2024/04/12 08:16:39;;;;;;;7.03;3.60;;;;;;;18.59;56.43;102004.13;7395307;19;20011;-80
2024/04/12 08:19:15;;;;;;;8.27;3.10;;;;;;;18.56;56.38;101994.41;7398848;19;20031;-80
2024/04/12 08:21:41;;;;;;;6.38;3.40;;;;;;;18.30;56.22;101962.75;7396684;19;20014;-81
2024/04/12 08:24:11;;;;;;;9.00;3.20;;;;;;;18.06;58.08;101990.91;7397001;19;20026;-80
2024/04/12 08:26:45;;;;;;;8.27;3.23;;;;;;;18.01;59.23;102014.41;7394770;19;20044;-78
2024/04/12 08:29:24;;;;;;;7.78;2.60;;;;;;;17.96;60.49;101973.56;7397204;19;20015;-80
2024/04/12 08:31:59;;;;;;;9.25;4.13;;;;;;;17.97;59.18;101981.53;7395724;19;20045;-79
2024/04/12 08:34:31;;;;;;;6.68;2.80;;;;;;;18.06;61.41;101988.22;7397072;19;20017;-79
2024/04/12 08:36:57;;;;;;;5.45;2.55;;;;;;;18.28;60.04;101978.06;7392843;19;20011;-78
2024/04/12 08:39:25;;;;;;;5.75;2.92;;;;;;;18.84;58.36;102023.28;7395239;19;20021;-79
2024/04/12 08:41:59;;;;;;;6.32;3.20;;;;;;;18.18;57.90;101980.38;7397614;19;20124;-77
2024/04/12 08:44:35;;;;;;;6.15;3.10;;;;;;;18.10;59.68;101973.72;7399604;19;20030;-79
2024/04/12 08:49:51;;;;;;;9.35;3.90;;;;;;;18.96;58.70;102032.47;7396066;19;20010;-80
2024/04/12 08:52:28;;;;;;;6.32;2.90;;;;;;;19.04;58.15;102030.25;7396267;19;20014;-81
2024/04/12 08:54:59;;;;;;;6.75;2.85;;;;;;;18.33;60.72;102000.16;7397950;19;20475;-81
2024/04/12 08:57:26;;;;;;;7.90;3.03;;;;;;;17.93;64.53;102017.50;7395686;19;20066;-80
2024/04/12 08:59:58;;;;;;;4.85;2.40;;;;;;;17.32;67.57;101960.75;7398406;19;20014;-80
2024/04/12 09:02:28;;;;;;;5.25;2.17;;;;;;;17.59;70.73;102023.66;7396024;19;20150;-79
2024/04/12 09:04:54;;;;;;;9.00;2.67;;;;;;;17.91;68.49;102018.50;7398299;19;20022;-78
2024/04/12 09:07:20;;;;;;;5.32;2.58;;;;;;;18.13;67.31;101970.84;7395851;19;20015;-79
2024/04/12 09:09:58;;;;;;;6.60;2.25;;;;;;;18.67;65.56;102015.31;7397826;19;20011;-78
2024/04/12 09:12:25;;;;;;;6.53;2.35;;;;;;;18.56;64.82;101988.19;7396822;19;20011;-78
2024/04/12 09:14:52;;;;;;;7.55;2.05;;;;;;;18.53;65.83;101977.63;7399147;19;20010;-81
2024/04/12 09:17:24;;;;;;;6.65;2.22;;;;;;;18.77;65.28;102012.97;7396993;19;20051;-81
2024/04/12 09:19:50;;;;;;;3.95;1.90;;;;;;;18.55;65.88;101957.81;7398590;19;20018;-78
2024/04/12 09:22:17;;;;;;;6.55;1.90;;;;;;;18.79;65.61;101984.25;7403698;19;20017;-76
2024/04/12 09:24:48;;;;;;;5.05;1.92;;;;;;;18.63;66.48;101980.69;7395094;19;20010;-78
2024/04/12 09:27:22;;;;;;;6.13;1.67;;;;;;;18.48;68.27;101975.19;7394887;19;20025;-79
2024/04/12 09:29:59;;;;;;;5.07;1.75;;;;;;;18.49;70.76;101990.31;7396531;19;20019;-77
2024/04/12 09:35:13;;;;;;;6.78;1.67;;;;;;;18.67;71.01;101983.13;7394752;19;20015;-77
2024/04/12 09:37:53;;;;;;;5.85;1.85;;;;;;;18.78;70.29;101986.06;7388440;19;20130;-78
2024/04/12 09:40:28;;;;;;;7.68;2.15;;;;;;;18.67;70.73;101972.38;7393793;19;20026;-78
2024/04/12 09:43:25;;;;;;;5.20;1.80;;;;;;;18.50;73.46;101986.69;7395726;19;20022;-77
2024/04/12 09:46:05;;;;;;;8.38;1.98;;;;;;;18.23;73.96;101967.63;7371906;19;20621;-77
2024/04/12 10:38:39;;;;;;;6.70;3.50;;;;;;;20.11;68.32;101967.47;7389147;19;20738;-78
2024/04/12 10:41:07;;;;;;;5.20;2.17;;;;;;;19.60;68.67;101895.31;7392476;19;20011;-77
2024/04/12 10:43:38;;;;;;;7.22;2.22;;;;;;;19.79;71.09;101966.78;7391344;19;20726;-78
2024/04/12 10:46:09;;;;;;;7.53;2.45;;;;;;;19.55;71.75;101939.53;7389813;19;20015;-78
2024/04/12 10:48:43;;;;;;;5.55;1.80;;;;;;;19.61;71.23;101950.78;7390271;19;20475;-78
2024/04/12 10:51:09;;;;;;;5.15;2.00;;;;;;;19.74;72.24;101976.91;7391825;19;20014;-77
2024/04/12 10:53:38;;;;;;;6.43;1.90;;;;;;;19.90;71.57;101956.22;7392442;19;20456;-78
2024/04/12 10:56:11;;;;;;;3.83;1.80;;;;;;;20.09;68.86;101908.41;7391680;19;20011;-77
2024/04/12 10:58:48;;;;;;;3.40;1.48;;;;;;;20.72;65.62;101944.78;7389801;19;20018;-79
2024/04/12 11:01:16;;;;;;;2.47;1.15;;;;;;;20.54;66.72;101961.16;7391236;19;20014;-77
2024/04/12 11:03:42;;;;;;;5.68;1.25;;;;;;;20.42;65.92;101921.59;7387729;19;20010;-78
2024/04/12 11:06:17;;;;;;;6.40;1.40;;;;;;;20.58;65.92;101953.75;7392303;19;20007;-79
2024/04/12 11:08:45;;;;;;;3.97;1.52;;;;;;;20.49;66.22;101925.59;7390755;19;20017;-78
2024/04/12 11:11:19;;;;;;;1.88;1.45;;;;;;;20.76;65.00;101954.41;7390256;19;20023;-77
2024/04/12 11:13:52;;;;;;;4.13;1.27;;;;;;;20.60;65.64;101973.38;7392959;19;20014;-79
2024/04/12 11:33:04;;;;;;;0.90;0.70;;;;;;;18.32;93.90;101992.19;7392054;19;20384;-77
2024/04/12 11:35:30;;;;;;;2.22;0.82;;;;;;;18.31;94.42;101959.13;7391492;19;20375;-78
2024/04/12 11:37:58;;;;;;;1.10;0.90;;;;;;;18.44;92.96;101957.50;7387449;19;20034;-78
2024/04/12 11:40:25;;;;;;;1.58;0.70;;;;;;;18.68;90.47;101973.25;7392142;19;20511;-77
2024/04/12 11:42:56;;;;;;;1.85;0.80;;;;;;;18.87;88.96;101979.31;7390675;19;20019;-78
2024/04/12 11:45:25;;;;;;;1.08;0.60;;;;;;;18.69;87.99;101964.25;7391880;19;20007;-78
2024/04/12 11:47:51;;;;;;;5.75;1.00;;;;;;;18.81;87.62;101971.59;7389324;19;20014;-77
2024/04/12 11:50:17;;;;;;;0.77;0.52;;;;;;;18.81;86.86;101934.88;7388338;19;20014;-78
2024/04/12 11:52:45;;;;;;;1.02;0.70;;;;;;;19.30;83.76;101966.97;7391383;19;20021;-78
2024/04/12 11:55:16;;;;;;;1.50;0.45;;;;;;;19.06;84.39;101934.34;7391223;19;20010;-78
2024/04/12 11:57:44;;;;;;;1.05;0.50;;;;;;;19.26;83.61;101968.97;7390325;19;20018;-78
2024/04/12 12:00:10;;;;;;;1.35;0.50;;;;;;;19.13;83.42;101956.34;7392465;19;20006;-78
2024/04/12 12:02:37;;;;;;;0.85;0.50;;;;;;;19.19;81.95;101938.06;7391080;19;20024;-78
2024/04/12 12:05:06;;;;;;;0.90;0.50;;;;;;;19.15;81.18;101963.34;7392662;19;20042;-78
2024/04/12 12:07:32;;;;;;;0.80;0.63;;;;;;;19.21;82.30;101946.88;7392094;19;20007;-77
2024/04/12 12:10:03;;;;;;;2.13;0.73;;;;;;;19.24;81.34;101938.63;7394659;19;20085;-79
2024/04/12 12:12:30;;;;;;;1.75;0.57;;;;;;;19.31;79.57;101933.78;7393538;19;20029;-79
2024/04/12 12:14:58;;;;;;;1.00;0.50;;;;;;;19.46;78.29;101953.50;7392301;19;20617;-79
2024/04/12 12:17:23;;;;;;;0.68;0.47;;;;;;;19.37;77.64;101938.78;7392929;19;20034;-79
2024/04/12 12:19:51;;;;;;;1.10;0.50;;;;;;;19.41;76.89;101909.91;7389031;19;20003;-78
2024/04/12 12:22:19;;;;;;;1.02;0.55;;;;;;;19.07;79.98;101916.41;7386028;19;20014;-78
2024/04/12 12:24:45;;;;;;;1.77;0.50;;;;;;;19.16;83.65;101948.97;7369930;19;20015;-79
2024/04/12 12:27:12;;;;;;;0.65;0.50;;;;;;;18.96;84.51;101918.84;7391087;19;20129;-77
2024/04/12 12:29:38;;;;;;;0.90;0.40;;;;;;;19.27;83.99;101945.66;7389542;19;20419;-78
2024/04/12 12:32:07;;;;;;;0.57;0.50;;;;;;;19.44;81.80;101950.03;7388747;19;20013;-80
2024/04/12 12:34:36;;;;;;;0.77;0.60;;;;;;;19.41;81.72;101951.06;7393167;19;20054;-82
2024/04/12 12:37:04;;;;;;;0.77;0.60;;;;;;;19.26;80.42;101917.94;7396625;19;20010;-79
2024/04/12 12:39:31;;;;;;;1.50;0.60;;;;;;;19.17;81.92;101918.47;7399832;19;20006;-80
2024/04/12 12:41:58;;;;;;;1.27;0.55;;;;;;;19.14;83.47;101940.13;7398961;19;20018;-79
2024/04/12 12:44:23;;;;;;;1.77;0.60;;;;;;;18.87;85.61;101880.88;7376670;19;20025;-81
2024/04/12 12:46:49;;;;;;;1.77;1.00;;;;;;;19.19;84.16;101908.53;7398897;19;20014;-80
2024/04/12 12:49:19;;;;;;;0.60;0.57;;;;;;;19.04;83.56;101893.31;7398246;19;20037;-82
2024/04/12 12:51:47;;;;;;;0.88;0.80;;;;;;;18.83;82.88;101848.94;7396542;19;20015;-80
2024/04/12 12:54:13;;;;;;;1.20;0.90;;;;;;;19.37;83.17;101932.53;7397713;19;20007;-81
2024/04/12 12:56:40;;;;;;;4.70;2.90;;;;;;;19.15;82.24;101847.03;7410352;19;20519;-81
2024/04/12 12:59:06;;;;;;;4.90;3.38;;;;;;;19.13;79.01;101844.44;7396791;19;20019;-81